sensor_id;sensor_type;location;lat;lon;timestamp;P1;durP1;ratioP1;P2;durP2;ratioP2
28192;SDS011;15473;50.840;3.396;2022-08-18T00:01:25;34.20;;;22.73;;
28192;SDS011;15473;50.840;3.396;2022-08-18T00:03:56;35.20;;;20.88;;
28192;SDS011;15473;50.840;3.396;2022-08-18T00:06:27;35.58;;;22.22;;
28192;SDS011;15473;50.840;3.396;2022-08-18T00:08:58;33.92;;;21.42;;
28192;SDS011;15473;50.840;3.396;2022-08-18T00:11:30;31.93;;;20.92;;
28192;SDS011;15473;50.840;3.396;2022-08-18T00:14:02;36.58;;;21.85;;
28192;SDS011;15473;50.840;3.396;2022-08-18T00:16:33;35.85;;;21.52;;
28192;SDS011;15473;50.840;3.396;2022-08-18T00:19:03;36.70;;;22.75;;
28192;SDS011;15473;50.840;3.396;2022-08-18T00:21:33;35.13;;;22.30;;
28192;SDS011;15473;50.840;3.396;2022-08-18T00:24:03;33.20;;;20.97;;
28192;SDS011;15473;50.840;3.396;2022-08-18T00:26:33;32.33;;;21.27;;
28192;SDS011;15473;50.840;3.396;2022-08-18T00:29:03;37.63;;;20.95;;
28192;SDS011;15473;50.840;3.396;2022-08-18T00:31:33;34.30;;;21.97;;
28192;SDS011;15473;50.840;3.396;2022-08-18T00:34:03;34.38;;;21.25;;
28192;SDS011;15473;50.840;3.396;2022-08-18T00:36:34;29.67;;;18.87;;
28192;SDS011;15473;50.840;3.396;2022-08-18T00:39:04;34.10;;;21.50;;
28192;SDS011;15473;50.840;3.396;2022-08-18T00:41:34;38.75;;;22.37;;
28192;SDS011;15473;50.840;3.396;2022-08-18T00:44:05;39.10;;;23.00;;
28192;SDS011;15473;50.840;3.396;2022-08-18T00:46:36;35.65;;;21.80;;
28192;SDS011;15473;50.840;3.396;2022-08-18T00:49:06;41.10;;;24.10;;
28192;SDS011;15473;50.840;3.396;2022-08-18T00:51:44;40.43;;;24.32;;
28192;SDS011;15473;50.840;3.396;2022-08-18T00:54:23;41.53;;;23.65;;
28192;SDS011;15473;50.840;3.396;2022-08-18T00:56:50;39.70;;;22.93;;
28192;SDS011;15473;50.840;3.396;2022-08-18T01:02:00;34.43;;;22.10;;
28192;SDS011;15473;50.840;3.396;2022-08-18T01:07:19;37.55;;;22.80;;
28192;SDS011;15473;50.840;3.396;2022-08-18T01:09:50;35.95;;;22.45;;
28192;SDS011;15473;50.840;3.396;2022-08-18T01:12:20;40.67;;;22.58;;
28192;SDS011;15473;50.840;3.396;2022-08-18T01:14:50;39.53;;;22.30;;
28192;SDS011;15473;50.840;3.396;2022-08-18T01:17:22;32.98;;;20.50;;
28192;SDS011;15473;50.840;3.396;2022-08-18T01:20:12;34.38;;;20.50;;
28192;SDS011;15473;50.840;3.396;2022-08-18T01:23:02;31.73;;;21.10;;
28192;SDS011;15473;50.840;3.396;2022-08-18T01:25:34;39.03;;;22.50;;
28192;SDS011;15473;50.840;3.396;2022-08-18T01:28:23;42.13;;;23.30;;
28192;SDS011;15473;50.840;3.396;2022-08-18T01:30:58;40.78;;;22.65;;
28192;SDS011;15473;50.840;3.396;2022-08-18T01:33:33;38.40;;;22.98;;
28192;SDS011;15473;50.840;3.396;2022-08-18T01:38:49;34.55;;;21.55;;
28192;SDS011;15473;50.840;3.396;2022-08-18T01:41:20;42.38;;;24.47;;
28192;SDS011;15473;50.840;3.396;2022-08-18T01:43:52;39.40;;;23.10;;
28192;SDS011;15473;50.840;3.396;2022-08-18T01:46:23;41.83;;;22.65;;
28192;SDS011;15473;50.840;3.396;2022-08-18T01:48:53;49.85;;;25.57;;
28192;SDS011;15473;50.840;3.396;2022-08-18T01:51:26;44.70;;;26.73;;
28192;SDS011;15473;50.840;3.396;2022-08-18T01:53:59;53.85;;;26.35;;
28192;SDS011;15473;50.840;3.396;2022-08-18T01:56:29;62.88;;;28.60;;
28192;SDS011;15473;50.840;3.396;2022-08-18T01:59:00;57.93;;;28.75;;
28192;SDS011;15473;50.840;3.396;2022-08-18T02:01:30;63.98;;;29.82;;
28192;SDS011;15473;50.840;3.396;2022-08-18T02:04:00;59.42;;;26.77;;
28192;SDS011;15473;50.840;3.396;2022-08-18T02:06:30;59.93;;;29.48;;
28192;SDS011;15473;50.840;3.396;2022-08-18T02:09:00;63.25;;;31.27;;
28192;SDS011;15473;50.840;3.396;2022-08-18T02:11:31;57.73;;;28.50;;
28192;SDS011;15473;50.840;3.396;2022-08-18T02:14:01;63.90;;;30.45;;
28192;SDS011;15473;50.840;3.396;2022-08-18T02:16:31;65.47;;;31.37;;
28192;SDS011;15473;50.840;3.396;2022-08-18T02:19:01;68.45;;;33.40;;
28192;SDS011;15473;50.840;3.396;2022-08-18T02:21:31;64.50;;;32.50;;
28192;SDS011;15473;50.840;3.396;2022-08-18T02:24:01;70.17;;;31.37;;
28192;SDS011;15473;50.840;3.396;2022-08-18T02:26:32;83.07;;;36.05;;
28192;SDS011;15473;50.840;3.396;2022-08-18T02:29:02;68.80;;;34.13;;
28192;SDS011;15473;50.840;3.396;2022-08-18T02:31:34;70.62;;;32.63;;
28192;SDS011;15473;50.840;3.396;2022-08-18T02:34:04;78.45;;;35.58;;
28192;SDS011;15473;50.840;3.396;2022-08-18T02:36:34;76.85;;;36.50;;
28192;SDS011;15473;50.840;3.396;2022-08-18T02:39:04;67.85;;;33.55;;
28192;SDS011;15473;50.840;3.396;2022-08-18T02:41:35;68.67;;;35.00;;
28192;SDS011;15473;50.840;3.396;2022-08-18T02:44:06;77.65;;;35.85;;
28192;SDS011;15473;50.840;3.396;2022-08-18T02:46:36;66.80;;;34.13;;
28192;SDS011;15473;50.840;3.396;2022-08-18T02:49:07;57.03;;;29.72;;
28192;SDS011;15473;50.840;3.396;2022-08-18T02:51:37;51.48;;;28.80;;
28192;SDS011;15473;50.840;3.396;2022-08-18T02:54:07;50.00;;;28.07;;
28192;SDS011;15473;50.840;3.396;2022-08-18T02:56:38;59.35;;;30.62;;
28192;SDS011;15473;50.840;3.396;2022-08-18T02:59:10;64.85;;;33.42;;
28192;SDS011;15473;50.840;3.396;2022-08-18T03:01:45;68.47;;;30.88;;
28192;SDS011;15473;50.840;3.396;2022-08-18T03:04:18;58.70;;;30.80;;
28192;SDS011;15473;50.840;3.396;2022-08-18T03:06:50;61.13;;;31.62;;
28192;SDS011;15473;50.840;3.396;2022-08-18T03:09:22;60.75;;;31.48;;
28192;SDS011;15473;50.840;3.396;2022-08-18T03:11:54;55.48;;;29.57;;
28192;SDS011;15473;50.840;3.396;2022-08-18T03:17:13;51.65;;;29.40;;
28192;SDS011;15473;50.840;3.396;2022-08-18T03:19:44;45.98;;;27.48;;
28192;SDS011;15473;50.840;3.396;2022-08-18T03:22:14;55.05;;;27.07;;
28192;SDS011;15473;50.840;3.396;2022-08-18T03:24:44;52.60;;;26.55;;
28192;SDS011;15473;50.840;3.396;2022-08-18T03:27:14;44.77;;;25.77;;
28192;SDS011;15473;50.840;3.396;2022-08-18T03:29:44;52.95;;;26.30;;
28192;SDS011;15473;50.840;3.396;2022-08-18T03:32:14;48.28;;;26.50;;
28192;SDS011;15473;50.840;3.396;2022-08-18T03:34:44;44.00;;;25.92;;
28192;SDS011;15473;50.840;3.396;2022-08-18T03:37:14;40.88;;;26.70;;
28192;SDS011;15473;50.840;3.396;2022-08-18T03:39:44;37.23;;;24.32;;
28192;SDS011;15473;50.840;3.396;2022-08-18T03:42:14;42.33;;;26.17;;
28192;SDS011;15473;50.840;3.396;2022-08-18T03:44:45;47.00;;;25.92;;
28192;SDS011;15473;50.840;3.396;2022-08-18T03:47:15;42.40;;;25.12;;
28192;SDS011;15473;50.840;3.396;2022-08-18T03:49:45;41.37;;;25.00;;
28192;SDS011;15473;50.840;3.396;2022-08-18T03:52:16;36.45;;;24.25;;
28192;SDS011;15473;50.840;3.396;2022-08-18T03:54:46;50.58;;;25.62;;
28192;SDS011;15473;50.840;3.396;2022-08-18T03:57:16;35.75;;;23.85;;
28192;SDS011;15473;50.840;3.396;2022-08-18T03:59:47;40.50;;;25.12;;
28192;SDS011;15473;50.840;3.396;2022-08-18T04:02:17;43.90;;;26.12;;
28192;SDS011;15473;50.840;3.396;2022-08-18T04:04:47;48.38;;;26.93;;
28192;SDS011;15473;50.840;3.396;2022-08-18T04:07:17;52.85;;;27.48;;
28192;SDS011;15473;50.840;3.396;2022-08-18T04:09:47;47.30;;;28.30;;
28192;SDS011;15473;50.840;3.396;2022-08-18T04:12:17;41.92;;;27.00;;
28192;SDS011;15473;50.840;3.396;2022-08-18T04:14:47;47.65;;;26.35;;
28192;SDS011;15473;50.840;3.396;2022-08-18T04:17:19;50.85;;;28.87;;
28192;SDS011;15473;50.840;3.396;2022-08-18T04:19:53;50.20;;;28.50;;
28192;SDS011;15473;50.840;3.396;2022-08-18T04:22:24;44.85;;;27.27;;
28192;SDS011;15473;50.840;3.396;2022-08-18T04:24:54;42.20;;;26.37;;
28192;SDS011;15473;50.840;3.396;2022-08-18T04:27:24;42.62;;;26.60;;
28192;SDS011;15473;50.840;3.396;2022-08-18T04:29:54;43.52;;;25.55;;
28192;SDS011;15473;50.840;3.396;2022-08-18T04:32:24;50.20;;;26.45;;
28192;SDS011;15473;50.840;3.396;2022-08-18T04:34:54;46.77;;;25.95;;
28192;SDS011;15473;50.840;3.396;2022-08-18T04:37:24;38.60;;;24.20;;
28192;SDS011;15473;50.840;3.396;2022-08-18T04:39:54;38.30;;;23.10;;
28192;SDS011;15473;50.840;3.396;2022-08-18T04:45:14;41.02;;;26.82;;
28192;SDS011;15473;50.840;3.396;2022-08-18T04:47:44;38.13;;;24.75;;
28192;SDS011;15473;50.840;3.396;2022-08-18T04:50:14;40.58;;;24.60;;
28192;SDS011;15473;50.840;3.396;2022-08-18T04:52:44;44.75;;;25.05;;
28192;SDS011;15473;50.840;3.396;2022-08-18T04:55:32;36.53;;;23.90;;
28192;SDS011;15473;50.840;3.396;2022-08-18T04:58:02;35.43;;;23.30;;
28192;SDS011;15473;50.840;3.396;2022-08-18T05:00:32;38.75;;;23.02;;
28192;SDS011;15473;50.840;3.396;2022-08-18T05:03:02;40.70;;;22.95;;
28192;SDS011;15473;50.840;3.396;2022-08-18T05:05:32;42.78;;;25.23;;
28192;SDS011;15473;50.840;3.396;2022-08-18T05:08:02;42.60;;;24.43;;
28192;SDS011;15473;50.840;3.396;2022-08-18T05:10:33;43.50;;;24.40;;
28192;SDS011;15473;50.840;3.396;2022-08-18T05:13:04;43.87;;;24.40;;
28192;SDS011;15473;50.840;3.396;2022-08-18T05:15:34;32.95;;;21.52;;
28192;SDS011;15473;50.840;3.396;2022-08-18T05:18:05;40.00;;;23.65;;
28192;SDS011;15473;50.840;3.396;2022-08-18T05:20:36;67.05;;;25.57;;
28192;SDS011;15473;50.840;3.396;2022-08-18T05:26:00;43.55;;;24.02;;
28192;SDS011;15473;50.840;3.396;2022-08-18T05:28:31;37.98;;;25.17;;
28192;SDS011;15473;50.840;3.396;2022-08-18T05:31:06;49.63;;;24.05;;
28192;SDS011;15473;50.840;3.396;2022-08-18T05:38:52;36.13;;;24.02;;
28192;SDS011;15473;50.840;3.396;2022-08-18T05:41:21;53.15;;;26.73;;
28192;SDS011;15473;50.840;3.396;2022-08-18T05:44:17;47.03;;;26.77;;
28192;SDS011;15473;50.840;3.396;2022-08-18T05:46:52;43.60;;;27.17;;
28192;SDS011;15473;50.840;3.396;2022-08-18T05:49:25;44.27;;;27.00;;
28192;SDS011;15473;50.840;3.396;2022-08-18T05:51:57;38.30;;;26.10;;
28192;SDS011;15473;50.840;3.396;2022-08-18T05:54:39;41.02;;;23.60;;
28192;SDS011;15473;50.840;3.396;2022-08-18T05:57:26;38.02;;;22.93;;
28192;SDS011;15473;50.840;3.396;2022-08-18T05:59:58;40.55;;;24.75;;
28192;SDS011;15473;50.840;3.396;2022-08-18T06:03:02;34.48;;;23.35;;
28192;SDS011;15473;50.840;3.396;2022-08-18T06:06:03;40.58;;;24.75;;
28192;SDS011;15473;50.840;3.396;2022-08-18T06:08:42;34.63;;;24.05;;
28192;SDS011;15473;50.840;3.396;2022-08-18T06:11:13;40.43;;;23.83;;
28192;SDS011;15473;50.840;3.396;2022-08-18T06:13:43;32.80;;;21.33;;
28192;SDS011;15473;50.840;3.396;2022-08-18T06:22:36;33.92;;;22.22;;
28192;SDS011;15473;50.840;3.396;2022-08-18T06:28:17;33.73;;;22.58;;
28192;SDS011;15473;50.840;3.396;2022-08-18T06:30:56;34.65;;;22.40;;
28192;SDS011;15473;50.840;3.396;2022-08-18T06:33:52;36.00;;;22.22;;
28192;SDS011;15473;50.840;3.396;2022-08-18T06:36:33;37.35;;;23.02;;
28192;SDS011;15473;50.840;3.396;2022-08-18T06:41:57;38.08;;;24.55;;
28192;SDS011;15473;50.840;3.396;2022-08-18T06:44:32;41.85;;;24.07;;
28192;SDS011;15473;50.840;3.396;2022-08-18T06:47:07;47.78;;;25.32;;
28192;SDS011;15473;50.840;3.396;2022-08-18T06:53:01;42.10;;;25.70;;
28192;SDS011;15473;50.840;3.396;2022-08-18T06:55:34;53.58;;;28.15;;
28192;SDS011;15473;50.840;3.396;2022-08-18T07:03:23;45.03;;;25.68;;
28192;SDS011;15473;50.840;3.396;2022-08-18T07:06:08;49.50;;;27.37;;
28192;SDS011;15473;50.840;3.396;2022-08-18T07:08:41;47.17;;;26.48;;
28192;SDS011;15473;50.840;3.396;2022-08-18T07:11:19;49.65;;;28.32;;
28192;SDS011;15473;50.840;3.396;2022-08-18T07:13:46;51.40;;;28.38;;
28192;SDS011;15473;50.840;3.396;2022-08-18T07:16:22;52.03;;;30.75;;
28192;SDS011;15473;50.840;3.396;2022-08-18T07:19:18;50.23;;;29.45;;
28192;SDS011;15473;50.840;3.396;2022-08-18T07:21:39;53.55;;;30.70;;
28192;SDS011;15473;50.840;3.396;2022-08-18T07:24:12;49.67;;;28.07;;
28192;SDS011;15473;50.840;3.396;2022-08-18T07:29:34;57.05;;;30.70;;
28192;SDS011;15473;50.840;3.396;2022-08-18T08:47:51;47.20;;;26.95;;
28192;SDS011;15473;50.840;3.396;2022-08-18T08:50:25;52.10;;;29.82;;
28192;SDS011;15473;50.840;3.396;2022-08-18T08:53:07;48.05;;;27.65;;
28192;SDS011;15473;50.840;3.396;2022-08-18T08:55:56;52.10;;;26.93;;
28192;SDS011;15473;50.840;3.396;2022-08-18T09:01:23;46.00;;;26.73;;
28192;SDS011;15473;50.840;3.396;2022-08-18T09:03:56;48.05;;;27.65;;
28192;SDS011;15473;50.840;3.396;2022-08-18T09:23:27;36.73;;;22.13;;
28192;SDS011;15473;50.840;3.396;2022-08-18T09:25:59;38.85;;;23.70;;
28192;SDS011;15473;50.840;3.396;2022-08-18T09:29:11;41.77;;;25.05;;
28192;SDS011;15473;50.840;3.396;2022-08-18T09:31:30;44.40;;;26.00;;
28192;SDS011;15473;50.840;3.396;2022-08-18T09:34:07;40.55;;;25.15;;
28192;SDS011;15473;50.840;3.396;2022-08-18T09:39:35;47.85;;;27.07;;
28192;SDS011;15473;50.840;3.396;2022-08-18T09:42:33;32.17;;;21.42;;
28192;SDS011;15473;50.840;3.396;2022-08-18T09:45:07;36.73;;;21.35;;
28192;SDS011;15473;50.840;3.396;2022-08-18T09:53:14;37.25;;;21.25;;
28192;SDS011;15473;50.840;3.396;2022-08-18T09:55:36;30.68;;;20.00;;
28192;SDS011;15473;50.840;3.396;2022-08-18T10:04:15;26.00;;;16.45;;
28192;SDS011;15473;50.840;3.396;2022-08-18T10:06:44;32.58;;;21.42;;
28192;SDS011;15473;50.840;3.396;2022-08-18T10:09:35;34.23;;;23.07;;
28192;SDS011;15473;50.840;3.396;2022-08-18T10:15:38;26.20;;;16.60;;
28192;SDS011;15473;50.840;3.396;2022-08-18T10:18:41;28.02;;;16.85;;
28192;SDS011;15473;50.840;3.396;2022-08-18T10:30:04;26.00;;;17.70;;
28192;SDS011;15473;50.840;3.396;2022-08-18T10:32:36;29.18;;;18.35;;
28192;SDS011;15473;50.840;3.396;2022-08-18T10:38:26;28.98;;;19.73;;
28192;SDS011;15473;50.840;3.396;2022-08-18T10:41:17;25.70;;;18.05;;
28192;SDS011;15473;50.840;3.396;2022-08-18T10:43:51;24.37;;;16.20;;
28192;SDS011;15473;50.840;3.396;2022-08-18T10:46:24;35.83;;;18.35;;
28192;SDS011;15473;50.840;3.396;2022-08-18T10:49:00;24.52;;;16.55;;
28192;SDS011;15473;50.840;3.396;2022-08-18T10:51:55;21.73;;;15.70;;
28192;SDS011;15473;50.840;3.396;2022-08-18T10:55:01;20.25;;;13.48;;
28192;SDS011;15473;50.840;3.396;2022-08-18T11:00:24;16.45;;;12.98;;
28192;SDS011;15473;50.840;3.396;2022-08-18T11:06:04;22.30;;;15.23;;
28192;SDS011;15473;50.840;3.396;2022-08-18T11:08:34;18.17;;;14.03;;
28192;SDS011;15473;50.840;3.396;2022-08-18T11:11:08;24.35;;;17.65;;
28192;SDS011;15473;50.840;3.396;2022-08-18T11:17:22;18.37;;;13.18;;
28192;SDS011;15473;50.840;3.396;2022-08-18T11:19:49;20.23;;;14.60;;
28192;SDS011;15473;50.840;3.396;2022-08-18T11:22:23;26.37;;;16.95;;
28192;SDS011;15473;50.840;3.396;2022-08-18T11:24:59;23.35;;;16.82;;
28192;SDS011;15473;50.840;3.396;2022-08-18T11:27:33;22.05;;;15.50;;
28192;SDS011;15473;50.840;3.396;2022-08-18T11:30:04;23.30;;;16.05;;
28192;SDS011;15473;50.840;3.396;2022-08-18T11:32:36;24.02;;;16.42;;
28192;SDS011;15473;50.840;3.396;2022-08-18T11:35:12;22.55;;;16.60;;
28192;SDS011;15473;50.840;3.396;2022-08-18T11:40:42;16.48;;;13.03;;
28192;SDS011;15473;50.840;3.396;2022-08-18T11:51:00;24.67;;;17.55;;
28192;SDS011;15473;50.840;3.396;2022-08-18T11:56:21;24.60;;;16.25;;
28192;SDS011;15473;50.840;3.396;2022-08-18T12:01:38;25.88;;;17.40;;
28192;SDS011;15473;50.840;3.396;2022-08-18T12:09:32;22.17;;;17.27;;
28192;SDS011;15473;50.840;3.396;2022-08-18T12:17:28;25.08;;;17.35;;
28192;SDS011;15473;50.840;3.396;2022-08-18T12:19:59;23.83;;;15.83;;
28192;SDS011;15473;50.840;3.396;2022-08-18T12:22:29;27.48;;;17.48;;
28192;SDS011;15473;50.840;3.396;2022-08-18T12:25:00;20.23;;;15.08;;
28192;SDS011;15473;50.840;3.396;2022-08-18T12:27:32;24.10;;;17.42;;
28192;SDS011;15473;50.840;3.396;2022-08-18T12:30:09;27.75;;;19.05;;
28192;SDS011;15473;50.840;3.396;2022-08-18T12:32:40;23.00;;;17.82;;
28192;SDS011;15473;50.840;3.396;2022-08-18T12:35:10;27.58;;;17.77;;
28192;SDS011;15473;50.840;3.396;2022-08-18T12:37:42;21.77;;;15.15;;
28192;SDS011;15473;50.840;3.396;2022-08-18T12:40:13;17.35;;;14.03;;
28192;SDS011;15473;50.840;3.396;2022-08-18T12:42:43;22.32;;;16.10;;
28192;SDS011;15473;50.840;3.396;2022-08-18T12:45:13;20.00;;;14.40;;
28192;SDS011;15473;50.840;3.396;2022-08-18T12:47:43;20.05;;;14.98;;
28192;SDS011;15473;50.840;3.396;2022-08-18T12:50:14;24.67;;;18.20;;
28192;SDS011;15473;50.840;3.396;2022-08-18T12:52:44;29.42;;;19.52;;
28192;SDS011;15473;50.840;3.396;2022-08-18T12:55:14;18.60;;;14.33;;
28192;SDS011;15473;50.840;3.396;2022-08-18T12:57:46;19.82;;;14.00;;
28192;SDS011;15473;50.840;3.396;2022-08-18T13:00:16;22.00;;;15.55;;
28192;SDS011;15473;50.840;3.396;2022-08-18T13:02:48;21.27;;;13.85;;
28192;SDS011;15473;50.840;3.396;2022-08-18T13:05:19;17.25;;;13.10;;
28192;SDS011;15473;50.840;3.396;2022-08-18T13:07:49;15.53;;;11.68;;
28192;SDS011;15473;50.840;3.396;2022-08-18T13:10:19;17.75;;;14.28;;
28192;SDS011;15473;50.840;3.396;2022-08-18T13:12:50;14.63;;;12.07;;
28192;SDS011;15473;50.840;3.396;2022-08-18T13:15:20;15.63;;;11.88;;
28192;SDS011;15473;50.840;3.396;2022-08-18T13:17:51;13.03;;;11.03;;
28192;SDS011;15473;50.840;3.396;2022-08-18T13:20:23;11.65;;;10.10;;
28192;SDS011;15473;50.840;3.396;2022-08-18T13:22:53;13.30;;;9.88;;
28192;SDS011;15473;50.840;3.396;2022-08-18T13:25:23;13.48;;;11.50;;
28192;SDS011;15473;50.840;3.396;2022-08-18T13:27:54;13.78;;;10.15;;
28192;SDS011;15473;50.840;3.396;2022-08-18T13:30:25;18.85;;;13.93;;
28192;SDS011;15473;50.840;3.396;2022-08-18T13:32:55;22.00;;;12.55;;
28192;SDS011;15473;50.840;3.396;2022-08-18T13:35:25;16.82;;;12.88;;
28192;SDS011;15473;50.840;3.396;2022-08-18T13:38:16;16.85;;;13.18;;
28192;SDS011;15473;50.840;3.396;2022-08-18T13:40:48;14.75;;;11.73;;
28192;SDS011;15473;50.840;3.396;2022-08-18T13:43:20;13.38;;;10.28;;
28192;SDS011;15473;50.840;3.396;2022-08-18T13:45:53;10.05;;;8.78;;
28192;SDS011;15473;50.840;3.396;2022-08-18T13:48:23;14.75;;;11.75;;
28192;SDS011;15473;50.840;3.396;2022-08-18T13:50:53;13.68;;;11.45;;
28192;SDS011;15473;50.840;3.396;2022-08-18T13:53:26;19.65;;;13.05;;
28192;SDS011;15473;50.840;3.396;2022-08-18T13:55:58;20.15;;;12.88;;
28192;SDS011;15473;50.840;3.396;2022-08-18T13:58:28;16.30;;;13.43;;
28192;SDS011;15473;50.840;3.396;2022-08-18T14:00:59;17.30;;;12.43;;
28192;SDS011;15473;50.840;3.396;2022-08-18T14:03:31;13.40;;;9.58;;
28192;SDS011;15473;50.840;3.396;2022-08-18T14:06:02;15.85;;;11.95;;
28192;SDS011;15473;50.840;3.396;2022-08-18T14:08:33;17.10;;;12.20;;
28192;SDS011;15473;50.840;3.396;2022-08-18T14:11:03;14.85;;;10.85;;
28192;SDS011;15473;50.840;3.396;2022-08-18T14:13:33;11.40;;;10.15;;
28192;SDS011;15473;50.840;3.396;2022-08-18T14:16:03;15.08;;;11.60;;
28192;SDS011;15473;50.840;3.396;2022-08-18T14:18:34;12.95;;;10.32;;
28192;SDS011;15473;50.840;3.396;2022-08-18T14:21:04;17.15;;;13.30;;
28192;SDS011;15473;50.840;3.396;2022-08-18T14:23:52;19.80;;;14.03;;
28192;SDS011;15473;50.840;3.396;2022-08-18T14:26:40;19.92;;;14.00;;
28192;SDS011;15473;50.840;3.396;2022-08-18T14:29:17;16.70;;;12.90;;
28192;SDS011;15473;50.840;3.396;2022-08-18T14:31:47;19.25;;;14.30;;
28192;SDS011;15473;50.840;3.396;2022-08-18T14:34:17;15.60;;;10.85;;
28192;SDS011;15473;50.840;3.396;2022-08-18T14:36:47;20.82;;;13.18;;
28192;SDS011;15473;50.840;3.396;2022-08-18T14:39:17;16.00;;;9.70;;
28192;SDS011;15473;50.840;3.396;2022-08-18T14:41:49;13.90;;;10.95;;
28192;SDS011;15473;50.840;3.396;2022-08-18T14:44:20;16.05;;;12.28;;
28192;SDS011;15473;50.840;3.396;2022-08-18T14:46:50;15.65;;;12.73;;
28192;SDS011;15473;50.840;3.396;2022-08-18T14:49:22;16.62;;;12.80;;
28192;SDS011;15473;50.840;3.396;2022-08-18T14:51:53;15.85;;;11.70;;
28192;SDS011;15473;50.840;3.396;2022-08-18T14:54:23;17.23;;;12.20;;
28192;SDS011;15473;50.840;3.396;2022-08-18T14:56:53;16.77;;;11.83;;
28192;SDS011;15473;50.840;3.396;2022-08-18T14:59:23;19.20;;;13.28;;
28192;SDS011;15473;50.840;3.396;2022-08-18T15:01:56;16.62;;;11.55;;
28192;SDS011;15473;50.840;3.396;2022-08-18T15:04:27;17.27;;;12.50;;
28192;SDS011;15473;50.840;3.396;2022-08-18T15:06:57;18.02;;;10.55;;
28192;SDS011;15473;50.840;3.396;2022-08-18T15:09:29;16.32;;;9.85;;
28192;SDS011;15473;50.840;3.396;2022-08-18T15:11:59;12.70;;;9.23;;
28192;SDS011;15473;50.840;3.396;2022-08-18T15:14:30;15.28;;;10.65;;
28192;SDS011;15473;50.840;3.396;2022-08-18T15:17:02;17.60;;;13.00;;
28192;SDS011;15473;50.840;3.396;2022-08-18T15:19:36;18.05;;;12.18;;
28192;SDS011;15473;50.840;3.396;2022-08-18T15:22:06;11.97;;;8.70;;
28192;SDS011;15473;50.840;3.396;2022-08-18T15:24:54;18.25;;;11.30;;
28192;SDS011;15473;50.840;3.396;2022-08-18T15:27:46;12.30;;;9.75;;
28192;SDS011;15473;50.840;3.396;2022-08-18T15:30:17;14.03;;;9.25;;
28192;SDS011;15473;50.840;3.396;2022-08-18T15:32:48;12.88;;;9.88;;
28192;SDS011;15473;50.840;3.396;2022-08-18T15:35:18;17.40;;;12.10;;
28192;SDS011;15473;50.840;3.396;2022-08-18T15:37:48;17.15;;;12.20;;
28192;SDS011;15473;50.840;3.396;2022-08-18T15:40:21;18.70;;;10.43;;
28192;SDS011;15473;50.840;3.396;2022-08-18T15:42:54;14.10;;;10.25;;
28192;SDS011;15473;50.840;3.396;2022-08-18T15:45:29;12.13;;;8.40;;
28192;SDS011;15473;50.840;3.396;2022-08-18T15:48:02;9.05;;;6.53;;
28192;SDS011;15473;50.840;3.396;2022-08-18T15:50:32;9.90;;;8.15;;
28192;SDS011;15473;50.840;3.396;2022-08-18T15:53:03;11.88;;;9.18;;
28192;SDS011;15473;50.840;3.396;2022-08-18T15:55:34;10.70;;;7.87;;
28192;SDS011;15473;50.840;3.396;2022-08-18T15:58:06;14.28;;;9.55;;
28192;SDS011;15473;50.840;3.396;2022-08-18T16:00:39;12.75;;;8.85;;
28192;SDS011;15473;50.840;3.396;2022-08-18T16:03:11;17.37;;;9.68;;
28192;SDS011;15473;50.840;3.396;2022-08-18T16:05:47;11.55;;;8.75;;
28192;SDS011;15473;50.840;3.396;2022-08-18T16:08:20;11.83;;;7.62;;
28192;SDS011;15473;50.840;3.396;2022-08-18T16:10:52;8.48;;;6.53;;
28192;SDS011;15473;50.840;3.396;2022-08-18T16:13:23;11.55;;;9.05;;
28192;SDS011;15473;50.840;3.396;2022-08-18T16:15:55;16.62;;;10.45;;
28192;SDS011;15473;50.840;3.396;2022-08-18T16:18:25;12.55;;;8.38;;
28192;SDS011;15473;50.840;3.396;2022-08-18T16:21:01;10.08;;;8.08;;
28192;SDS011;15473;50.840;3.396;2022-08-18T16:23:33;13.28;;;9.28;;
28192;SDS011;15473;50.840;3.396;2022-08-18T16:26:03;12.07;;;9.73;;
28192;SDS011;15473;50.840;3.396;2022-08-18T16:28:34;12.07;;;8.85;;
28192;SDS011;15473;50.840;3.396;2022-08-18T16:31:04;11.68;;;8.70;;
28192;SDS011;15473;50.840;3.396;2022-08-18T16:33:35;13.50;;;7.85;;
28192;SDS011;15473;50.840;3.396;2022-08-18T16:36:06;13.15;;;9.85;;
28192;SDS011;15473;50.840;3.396;2022-08-18T16:38:44;13.08;;;8.55;;
28192;SDS011;15473;50.840;3.396;2022-08-18T16:41:14;11.83;;;7.62;;
28192;SDS011;15473;50.840;3.396;2022-08-18T16:43:45;10.25;;;7.72;;
28192;SDS011;15473;50.840;3.396;2022-08-18T16:46:16;10.15;;;8.20;;
28192;SDS011;15473;50.840;3.396;2022-08-18T16:48:54;15.43;;;7.72;;
28192;SDS011;15473;50.840;3.396;2022-08-18T16:51:26;10.95;;;7.92;;
28192;SDS011;15473;50.840;3.396;2022-08-18T16:53:56;13.13;;;8.88;;
28192;SDS011;15473;50.840;3.396;2022-08-18T16:56:27;10.58;;;8.48;;
28192;SDS011;15473;50.840;3.396;2022-08-18T16:59:01;12.37;;;8.18;;
28192;SDS011;15473;50.840;3.396;2022-08-18T17:01:49;12.60;;;8.50;;
28192;SDS011;15473;50.840;3.396;2022-08-18T17:04:37;12.45;;;8.98;;
28192;SDS011;15473;50.840;3.396;2022-08-18T17:07:08;11.97;;;7.92;;
28192;SDS011;15473;50.840;3.396;2022-08-18T17:09:38;12.73;;;8.00;;
28192;SDS011;15473;50.840;3.396;2022-08-18T17:12:08;13.75;;;9.38;;
28192;SDS011;15473;50.840;3.396;2022-08-18T17:14:38;10.63;;;7.97;;
28192;SDS011;15473;50.840;3.396;2022-08-18T17:17:08;10.60;;;8.13;;
28192;SDS011;15473;50.840;3.396;2022-08-18T17:19:39;8.03;;;6.25;;
28192;SDS011;15473;50.840;3.396;2022-08-18T17:22:09;13.13;;;8.15;;
28192;SDS011;15473;50.840;3.396;2022-08-18T17:24:40;7.97;;;6.22;;
28192;SDS011;15473;50.840;3.396;2022-08-18T17:27:14;10.78;;;6.85;;
28192;SDS011;15473;50.840;3.396;2022-08-18T17:32:26;7.90;;;6.28;;
28192;SDS011;15473;50.840;3.396;2022-08-18T17:35:11;8.60;;;6.60;;
28192;SDS011;15473;50.840;3.396;2022-08-18T17:37:51;7.08;;;6.28;;
28192;SDS011;15473;50.840;3.396;2022-08-18T17:40:30;7.85;;;5.85;;
28192;SDS011;15473;50.840;3.396;2022-08-18T17:43:00;12.45;;;5.42;;
28192;SDS011;15473;50.840;3.396;2022-08-18T17:45:30;8.90;;;6.55;;
28192;SDS011;15473;50.840;3.396;2022-08-18T17:48:07;8.30;;;6.97;;
28192;SDS011;15473;50.840;3.396;2022-08-18T17:50:37;7.60;;;6.22;;
28192;SDS011;15473;50.840;3.396;2022-08-18T17:53:32;7.70;;;5.92;;
28192;SDS011;15473;50.840;3.396;2022-08-18T17:58:50;8.08;;;6.80;;
28192;SDS011;15473;50.840;3.396;2022-08-18T18:01:24;6.87;;;6.05;;
28192;SDS011;15473;50.840;3.396;2022-08-18T18:03:54;9.88;;;6.58;;
28192;SDS011;15473;50.840;3.396;2022-08-18T18:06:26;10.13;;;6.72;;
28192;SDS011;15473;50.840;3.396;2022-08-18T18:09:07;8.50;;;6.55;;
28192;SDS011;15473;50.840;3.396;2022-08-18T18:11:41;8.05;;;6.72;;
28192;SDS011;15473;50.840;3.396;2022-08-18T18:14:21;9.60;;;7.20;;
28192;SDS011;15473;50.840;3.396;2022-08-18T18:19:36;10.65;;;7.10;;
28192;SDS011;15473;50.840;3.396;2022-08-18T18:22:18;10.60;;;7.55;;
28192;SDS011;15473;50.840;3.396;2022-08-18T18:24:57;11.40;;;7.20;;
28192;SDS011;15473;50.840;3.396;2022-08-18T18:30:19;11.08;;;8.68;;
28192;SDS011;15473;50.840;3.396;2022-08-18T18:32:54;13.10;;;8.38;;
28192;SDS011;15473;50.840;3.396;2022-08-18T18:38:25;11.73;;;8.78;;
28192;SDS011;15473;50.840;3.396;2022-08-18T18:41:02;12.23;;;8.55;;
28192;SDS011;15473;50.840;3.396;2022-08-18T18:43:38;9.33;;;7.62;;